createdAt,value
2017-08-16T00:01:41.804Z,5.53
2017-08-16T00:04:08.253Z,5.97
2017-08-16T00:06:34.724Z,5.35
2017-08-16T00:09:01.089Z,6.65
2017-08-16T00:11:27.501Z,5.30
2017-08-16T00:13:53.889Z,6.53
2017-08-16T00:16:20.304Z,6.00
2017-08-16T00:18:47.400Z,5.35
2017-08-16T00:21:13.838Z,4.80
2017-08-16T00:23:40.220Z,5.28
2017-08-16T00:26:06.589Z,6.07
2017-08-16T00:28:33.016Z,5.43
2017-08-16T00:30:59.421Z,5.62
2017-08-16T00:33:25.796Z,5.40
2017-08-16T00:35:52.268Z,5.03
2017-08-16T00:38:19.394Z,5.03
2017-08-16T00:40:45.828Z,4.85
2017-08-16T00:43:12.287Z,5.82
2017-08-16T00:45:39.420Z,4.60
2017-08-16T00:48:05.864Z,5.07
2017-08-16T00:50:32.260Z,5.30
2017-08-16T00:52:58.724Z,5.10
2017-08-16T00:55:25.113Z,4.70
2017-08-16T00:57:51.541Z,4.40
2017-08-16T01:00:17.944Z,4.32
2017-08-16T01:02:44.656Z,4.72
2017-08-16T01:05:11.128Z,4.90
2017-08-16T01:07:37.550Z,5.20
2017-08-16T01:10:03.965Z,4.32
2017-08-16T01:12:30.369Z,4.47
2017-08-16T01:14:56.731Z,4.30
2017-08-16T01:17:23.116Z,4.70
2017-08-16T01:19:49.568Z,4.43
2017-08-16T01:22:15.935Z,4.43
2017-08-16T01:24:42.340Z,4.65
2017-08-16T01:27:08.733Z,5.15
2017-08-16T01:29:35.108Z,5.57
2017-08-16T01:32:01.493Z,5.60
2017-08-16T01:34:27.891Z,4.90
2017-08-16T01:36:54.288Z,4.60
2017-08-16T01:39:20.693Z,4.78
2017-08-16T01:41:47.110Z,5.40
2017-08-16T01:44:13.538Z,5.50
2017-08-16T01:46:39.925Z,4.90
2017-08-16T01:49:07.053Z,4.50
2017-08-16T01:51:33.460Z,4.62
2017-08-16T01:53:59.864Z,5.25
2017-08-16T01:56:26.269Z,5.35
2017-08-16T01:58:52.649Z,4.90
2017-08-16T02:01:19.085Z,4.62
2017-08-16T02:03:45.453Z,4.28
2017-08-16T02:06:11.872Z,5.10
2017-08-16T02:08:38.313Z,5.90
2017-08-16T02:11:04.707Z,5.72
2017-08-16T02:13:31.133Z,5.43
2017-08-16T02:15:57.612Z,5.43
2017-08-16T02:18:23.993Z,5.80
2017-08-16T02:20:50.408Z,4.95
2017-08-16T02:23:16.821Z,4.70
2017-08-16T02:25:43.197Z,5.37
2017-08-16T02:28:09.613Z,5.70
2017-08-16T02:30:36.049Z,4.50
2017-08-16T02:33:02.506Z,4.93
2017-08-16T02:35:28.875Z,4.80
2017-08-16T02:37:55.254Z,5.60
2017-08-16T02:40:21.689Z,5.53
2017-08-16T02:42:48.077Z,5.47
2017-08-16T02:45:14.445Z,5.03
2017-08-16T02:47:40.837Z,5.25
2017-08-16T02:50:07.964Z,4.70
2017-08-16T02:52:34.386Z,5.97
2017-08-16T02:55:00.878Z,4.90
2017-08-16T02:57:27.304Z,4.68
2017-08-16T02:59:53.746Z,4.72
2017-08-16T03:02:20.225Z,5.60
2017-08-16T03:04:46.641Z,4.87
2017-08-16T03:07:13.069Z,5.03
2017-08-16T03:09:39.533Z,4.55
2017-08-16T03:12:06.712Z,4.18
2017-08-16T03:14:33.165Z,5.12
2017-08-16T03:16:59.614Z,4.20
2017-08-16T03:19:26.152Z,4.60
2017-08-16T03:21:52.622Z,5.37
2017-08-16T03:24:19.821Z,4.45
2017-08-16T03:26:46.293Z,5.03
2017-08-16T03:29:12.749Z,4.95
2017-08-16T03:31:39.923Z,4.60
2017-08-16T03:34:06.419Z,4.20
2017-08-16T03:36:33.588Z,4.95
2017-08-16T03:39:00.032Z,4.55
2017-08-16T03:41:26.493Z,4.80
2017-08-16T03:43:52.948Z,4.50
2017-08-16T03:46:19.368Z,4.65
2017-08-16T03:48:45.829Z,4.72
2017-08-16T03:51:12.321Z,4.87
2017-08-16T03:53:38.770Z,4.90
2017-08-16T03:56:05.202Z,4.43
2017-08-16T03:58:31.669Z,4.20
2017-08-16T04:00:58.098Z,4.30
2017-08-16T04:03:24.555Z,4.15
2017-08-16T04:05:51.013Z,4.70
2017-08-16T04:08:17.456Z,4.43
2017-08-16T04:10:43.946Z,4.72
2017-08-16T04:13:11.133Z,4.25
2017-08-16T04:15:37.572Z,5.30
2017-08-16T04:18:04.053Z,4.20
2017-08-16T04:20:30.486Z,5.03
2017-08-16T04:22:57.703Z,4.65
2017-08-16T04:25:24.144Z,4.85
2017-08-16T04:27:50.568Z,5.32
2017-08-16T04:30:17.002Z,5.30
2017-08-16T04:32:43.496Z,5.65
2017-08-16T04:35:09.925Z,5.65
2017-08-16T04:37:36.384Z,5.68
2017-08-16T04:40:02.867Z,6.05
2017-08-16T04:42:29.321Z,6.15
2017-08-16T04:44:55.765Z,6.53
2017-08-16T04:47:22.228Z,6.20
2017-08-16T04:49:48.665Z,7.15
2017-08-16T04:52:15.140Z,6.18
2017-08-16T04:54:41.558Z,6.28
2017-08-16T04:57:08.017Z,7.07
2017-08-16T04:59:34.484Z,6.85
2017-08-16T05:02:00.919Z,6.32
2017-08-16T05:04:27.408Z,6.87
2017-08-16T05:06:53.916Z,7.35
2017-08-16T05:09:21.096Z,6.75
2017-08-16T05:11:47.533Z,6.65
2017-08-16T05:14:14.005Z,6.65
2017-08-16T05:16:40.440Z,5.70
2017-08-16T05:19:06.930Z,6.95
2017-08-16T05:21:33.379Z,7.03
2017-08-16T05:23:59.800Z,6.68
2017-08-16T05:26:26.277Z,7.22
2017-08-16T05:28:52.717Z,5.90
2017-08-16T05:31:19.145Z,6.93
2017-08-16T05:33:45.627Z,6.37
2017-08-16T05:36:12.135Z,5.43
2017-08-16T05:38:38.590Z,6.18
2017-08-16T05:41:05.064Z,6.20
2017-08-16T05:43:31.444Z,6.22
2017-08-16T05:45:58.622Z,6.10
2017-08-16T05:48:25.120Z,5.82
2017-08-16T05:50:51.527Z,5.45
2017-08-16T05:53:17.940Z,5.12
2017-08-16T05:55:44.367Z,5.55
2017-08-16T05:58:10.765Z,6.20
2017-08-16T06:00:37.199Z,6.20
2017-08-16T06:03:03.588Z,6.72
2017-08-16T06:05:30.044Z,5.25
2017-08-16T06:07:56.487Z,6.85
2017-08-16T06:10:23.613Z,6.53
2017-08-16T06:12:49.986Z,5.50
2017-08-16T06:15:17.125Z,4.75
2017-08-16T06:17:44.260Z,4.85
2017-08-16T06:20:10.660Z,5.40
2017-08-16T06:22:37.060Z,5.57
2017-08-16T06:25:03.460Z,5.18
2017-08-16T06:27:29.828Z,4.10
2017-08-16T06:29:56.195Z,4.30
2017-08-16T06:32:22.592Z,4.10
2017-08-16T06:34:48.988Z,3.97
2017-08-16T06:37:16.114Z,4.80
2017-08-16T06:39:42.496Z,3.72
2017-08-16T06:42:08.892Z,4.18
2017-08-16T06:44:35.296Z,3.90
2017-08-16T06:47:01.681Z,3.75
2017-08-16T06:49:28.080Z,3.65
2017-08-16T06:51:54.442Z,3.42
2017-08-16T06:54:21.600Z,4.10
2017-08-16T06:56:48.052Z,3.72
2017-08-16T06:59:14.449Z,3.60
2017-08-16T07:01:41.597Z,3.60
2017-08-16T07:04:08.716Z,3.60
2017-08-16T07:06:35.111Z,3.45
2017-08-16T07:09:01.496Z,3.30
2017-08-16T07:11:28.652Z,3.30
2017-08-16T07:13:55.032Z,3.65
2017-08-16T07:16:21.385Z,3.40
2017-08-16T07:18:47.790Z,3.30
2017-08-16T07:21:14.237Z,3.67
2017-08-16T07:23:40.641Z,3.90
2017-08-16T07:26:06.997Z,3.83
2017-08-16T07:28:33.356Z,3.40
2017-08-16T07:30:59.766Z,3.87
2017-08-16T07:33:26.136Z,3.50
2017-08-16T07:35:52.515Z,4.10
2017-08-16T07:38:18.896Z,3.60
2017-08-16T07:40:45.252Z,3.50
2017-08-16T07:43:11.667Z,3.47
2017-08-16T07:45:38.788Z,3.45
2017-08-16T07:48:05.158Z,3.45
2017-08-16T07:50:31.540Z,3.72
2017-08-16T07:52:58.033Z,3.40
2017-08-16T07:55:24.423Z,3.10
2017-08-16T07:57:50.785Z,3.10
2017-08-16T08:00:17.181Z,3.20
2017-08-16T08:02:44.356Z,3.40
2017-08-16T08:05:10.738Z,3.45
2017-08-16T08:07:37.175Z,2.80
2017-08-16T08:10:03.543Z,3.45
2017-08-16T08:12:30.664Z,3.87
2017-08-16T08:14:57.060Z,3.20
2017-08-16T08:17:23.423Z,3.42
2017-08-16T08:19:49.816Z,3.33
2017-08-16T08:22:16.217Z,3.05
2017-08-16T08:24:43.345Z,3.20
2017-08-16T08:27:09.716Z,3.12
2017-08-16T08:29:36.085Z,2.78
2017-08-16T08:32:02.489Z,3.75
2017-08-16T08:34:28.853Z,3.17
2017-08-16T08:36:55.245Z,3.90
2017-08-16T08:39:21.624Z,2.97
2017-08-16T08:41:47.983Z,3.20
2017-08-16T08:44:14.408Z,3.55
2017-08-16T08:46:40.761Z,3.50
2017-08-16T08:49:07.160Z,4.35
2017-08-16T08:51:33.539Z,3.40
2017-08-16T08:53:59.950Z,3.62
2017-08-16T08:56:27.048Z,3.45
2017-08-16T08:58:53.429Z,3.05
2017-08-16T09:01:20.593Z,3.40
2017-08-16T09:03:46.999Z,3.25
2017-08-16T09:06:14.118Z,3.60
2017-08-16T09:08:40.484Z,3.17
2017-08-16T09:11:07.629Z,3.30
2017-08-16T09:13:34.744Z,3.22
2017-08-16T09:16:01.136Z,3.35
2017-08-16T09:18:27.536Z,3.30
2017-08-16T09:20:53.939Z,3.42
2017-08-16T09:23:20.335Z,3.10
2017-08-16T09:25:46.776Z,2.90
2017-08-16T09:28:13.162Z,2.97
2017-08-16T09:30:40.306Z,2.80
2017-08-16T09:33:06.690Z,3.10
2017-08-16T09:35:33.124Z,2.67
2017-08-16T09:37:59.541Z,2.87
2017-08-16T09:40:25.897Z,2.90
2017-08-16T09:42:52.340Z,2.58
2017-08-16T09:45:18.709Z,3.25
2017-08-16T09:47:45.161Z,3.10
2017-08-16T09:50:11.581Z,2.70
2017-08-16T09:52:37.975Z,2.50
2017-08-16T09:55:04.420Z,2.60
2017-08-16T09:57:30.794Z,2.60
2017-08-16T09:59:57.156Z,2.87
2017-08-16T10:02:23.582Z,2.47
2017-08-16T10:04:49.956Z,3.00
2017-08-16T10:07:16.328Z,3.25
2017-08-16T10:09:42.701Z,2.72
2017-08-16T10:12:09.101Z,2.70
2017-08-16T10:14:35.486Z,2.78
2017-08-16T10:17:01.867Z,3.62
2017-08-16T10:19:28.248Z,3.03
2017-08-16T10:21:55.356Z,2.80
2017-08-16T10:24:21.764Z,2.95
2017-08-16T10:26:48.152Z,2.92
2017-08-16T10:29:14.564Z,3.08
2017-08-16T10:31:40.937Z,2.90
2017-08-16T10:34:08.036Z,3.20
2017-08-16T10:36:34.436Z,2.72
2017-08-16T10:39:00.795Z,2.87
2017-08-16T10:41:27.233Z,3.50
2017-08-16T10:43:53.678Z,2.67
2017-08-16T10:46:20.061Z,2.72
2017-08-16T10:48:46.497Z,2.87
2017-08-16T10:51:12.891Z,2.67
2017-08-16T10:53:40.024Z,2.83
2017-08-16T10:56:06.455Z,2.67
2017-08-16T10:58:32.825Z,2.75
2017-08-16T11:00:59.174Z,2.80
2017-08-16T11:03:25.656Z,2.95
2017-08-16T11:05:52.037Z,2.60
2017-08-16T11:08:18.432Z,3.00
2017-08-16T11:10:45.561Z,3.10
2017-08-16T11:13:11.924Z,3.22
2017-08-16T11:15:39.060Z,3.03
2017-08-16T11:18:05.424Z,3.00
2017-08-16T11:20:31.790Z,2.70
2017-08-16T11:22:58.201Z,2.72
2017-08-16T11:25:24.598Z,3.30
2017-08-16T11:27:51.048Z,3.22
2017-08-16T11:30:17.400Z,3.12
2017-08-16T11:32:43.764Z,3.00
2017-08-16T11:35:10.152Z,2.95
2017-08-16T11:37:36.532Z,2.90
2017-08-16T11:40:03.672Z,3.22
2017-08-16T11:42:30.072Z,3.30
2017-08-16T11:44:56.448Z,3.00
2017-08-16T11:47:22.828Z,2.90
2017-08-16T11:49:49.220Z,2.80
2017-08-16T11:52:15.630Z,3.28
2017-08-16T11:54:42.024Z,3.70
2017-08-16T11:57:08.377Z,2.90
2017-08-16T11:59:34.773Z,3.47
2017-08-16T12:02:01.169Z,2.70
2017-08-16T12:04:27.585Z,3.05
2017-08-16T12:06:53.963Z,3.25
2017-08-16T12:09:20.340Z,3.00
2017-08-16T12:11:46.757Z,3.47
2017-08-16T12:14:13.152Z,3.00
2017-08-16T12:16:39.572Z,3.25
2017-08-16T12:19:06.045Z,3.33
2017-08-16T12:21:32.425Z,3.30
2017-08-16T12:23:58.801Z,2.97
2017-08-16T12:26:25.256Z,3.55
2017-08-16T12:28:51.627Z,3.28
2017-08-16T12:31:18.736Z,3.20
2017-08-16T12:33:45.128Z,2.90
2017-08-16T12:36:11.537Z,3.45
2017-08-16T12:38:37.917Z,3.55
2017-08-16T12:41:04.272Z,3.67
2017-08-16T12:43:30.676Z,3.65
2017-08-16T12:45:57.068Z,3.97
2017-08-16T12:48:24.191Z,3.90
2017-08-16T12:50:50.618Z,3.35
2017-08-16T12:53:16.976Z,4.25
2017-08-16T12:55:44.100Z,4.07
2017-08-16T12:58:10.499Z,3.85
2017-08-16T13:00:36.952Z,4.35
2017-08-16T13:03:03.311Z,4.10
2017-08-16T13:05:30.473Z,4.40
2017-08-16T13:20:47.248Z,3.40
2017-08-16T13:23:14.400Z,4.00
2017-08-16T13:25:41.583Z,4.15
2017-08-16T13:28:07.989Z,3.70
2017-08-16T13:30:34.402Z,4.35
2017-08-16T13:33:00.780Z,3.80
2017-08-16T13:35:27.171Z,4.05
2017-08-16T13:37:53.568Z,4.10
2017-08-16T13:40:19.964Z,4.10
2017-08-16T13:42:46.652Z,3.92
2017-08-16T13:45:13.075Z,4.10
2017-08-16T13:47:39.464Z,3.53
2017-08-16T13:50:05.844Z,4.20
2017-08-16T13:52:33.020Z,5.03
2017-08-16T13:54:59.428Z,4.55
2017-08-16T13:57:25.823Z,4.50
2017-08-16T13:59:52.289Z,4.15
2017-08-16T14:02:18.648Z,3.90
2017-08-16T14:04:45.028Z,4.60
2017-08-16T14:07:11.392Z,4.55
2017-08-16T14:09:37.756Z,4.10
2017-08-16T14:12:04.164Z,4.72
2017-08-16T14:14:30.535Z,4.72
2017-08-16T14:16:56.928Z,3.72
2017-08-16T14:19:23.328Z,4.10
2017-08-16T14:21:49.685Z,4.00
2017-08-16T14:24:16.056Z,4.18
2017-08-16T14:26:42.452Z,4.40
2017-08-16T14:29:09.588Z,4.30
2017-08-16T14:31:35.963Z,4.72
2017-08-16T14:34:02.370Z,4.45
2017-08-16T14:36:28.744Z,4.15
2017-08-16T14:38:55.167Z,4.35
2017-08-16T14:41:21.528Z,4.20
2017-08-16T14:43:48.024Z,3.97
2017-08-16T14:46:14.448Z,4.22
2017-08-16T14:48:41.580Z,4.03
2017-08-16T14:51:07.989Z,4.47
2017-08-16T14:53:34.373Z,4.32
2017-08-16T14:56:00.753Z,4.43
2017-08-16T14:58:27.161Z,4.40
2017-08-16T15:00:53.568Z,4.78
2017-08-16T15:03:19.954Z,4.12
2017-08-16T15:05:46.364Z,4.72
2017-08-16T15:08:12.727Z,4.05
2017-08-16T15:10:39.102Z,4.10
2017-08-16T15:13:05.520Z,4.10
2017-08-16T15:15:31.949Z,3.85
2017-08-16T15:17:59.077Z,3.67
2017-08-16T15:20:25.505Z,4.57
2017-08-16T15:22:51.910Z,4.25
2017-08-16T15:25:18.306Z,4.50
2017-08-16T15:27:44.679Z,4.80
2017-08-16T15:30:11.088Z,4.10
2017-08-16T15:32:37.480Z,4.00
2017-08-16T15:35:04.632Z,4.10
2017-08-16T15:37:30.997Z,4.37
2017-08-16T15:39:57.362Z,4.40
2017-08-16T15:42:23.784Z,4.47
2017-08-16T15:44:50.153Z,4.37
2017-08-16T15:47:17.274Z,4.40
2017-08-16T15:49:43.689Z,4.20
2017-08-16T15:52:10.061Z,4.20
2017-08-16T15:54:37.224Z,5.22
2017-08-16T15:57:03.591Z,4.50
2017-08-16T15:59:29.993Z,5.00
2017-08-16T16:01:56.364Z,6.65
2017-08-16T16:04:22.716Z,6.35
2017-08-16T16:06:49.892Z,4.60
2017-08-16T16:09:17.013Z,3.90
2017-08-16T16:11:44.233Z,3.90
2017-08-16T16:14:10.620Z,4.30
2017-08-16T16:16:37.744Z,4.30
2017-08-16T16:19:04.136Z,4.97
2017-08-16T16:21:30.495Z,4.22
2017-08-16T16:23:56.965Z,4.40
2017-08-16T16:26:23.349Z,4.18
2017-08-16T16:28:49.736Z,4.72
2017-08-16T16:31:16.168Z,4.43
2017-08-16T16:33:42.558Z,7.12
2017-08-16T16:36:08.992Z,4.20
2017-08-16T16:38:35.456Z,4.40
2017-08-16T16:41:01.823Z,4.05
2017-08-16T16:43:28.164Z,4.50
2017-08-16T16:45:54.561Z,4.12
2017-08-16T16:48:20.908Z,4.65
2017-08-16T16:50:47.293Z,5.12
2017-08-16T16:53:14.453Z,4.35
2017-08-16T16:55:41.588Z,4.53
2017-08-16T16:58:07.955Z,7.45
2017-08-16T17:00:34.352Z,13.85
2017-08-16T17:03:00.769Z,7.62
2017-08-16T17:05:27.112Z,4.70
2017-08-16T17:07:53.508Z,5.30
2017-08-16T17:10:19.883Z,27.15
2017-08-16T17:12:46.992Z,7.45
2017-08-16T17:15:13.392Z,4.78
2017-08-16T17:17:39.764Z,10.48
2017-08-16T17:20:06.160Z,6.57
2017-08-16T17:22:32.561Z,5.28
2017-08-16T17:24:59.667Z,4.50
2017-08-16T17:27:27.140Z,4.93
2017-08-16T17:29:53.566Z,4.97
2017-08-16T17:32:19.933Z,5.07
2017-08-16T17:34:46.312Z,4.82
2017-08-16T17:37:12.756Z,4.87
2017-08-16T17:39:39.131Z,4.80
2017-08-16T17:42:06.276Z,4.93
2017-08-16T17:44:32.669Z,5.72
2017-08-16T17:46:59.058Z,5.15
2017-08-16T17:49:25.467Z,5.10
2017-08-16T17:51:51.873Z,4.93
2017-08-16T17:54:18.243Z,5.30
2017-08-16T17:56:44.661Z,5.00
2017-08-16T17:59:11.844Z,5.20
2017-08-16T18:01:38.232Z,5.00
2017-08-16T18:04:04.606Z,5.55
2017-08-16T18:06:31.109Z,4.68
2017-08-16T18:08:57.537Z,5.12
2017-08-16T18:11:23.918Z,5.37
2017-08-16T18:13:50.344Z,5.45
2017-08-16T18:16:16.727Z,4.90
2017-08-16T18:18:43.120Z,5.40
2017-08-16T18:21:09.523Z,6.40
2017-08-16T18:23:35.882Z,5.70
2017-08-16T18:26:02.291Z,5.95
2017-08-16T18:28:28.685Z,5.57
2017-08-16T18:30:55.057Z,6.57
2017-08-16T18:33:21.489Z,7.03
2017-08-16T18:35:47.869Z,7.80
2017-08-16T18:38:14.250Z,7.45
2017-08-16T18:40:40.669Z,8.95
2017-08-16T18:43:07.049Z,6.28
2017-08-16T18:45:33.496Z,5.78
2017-08-16T18:47:59.859Z,13.02
2017-08-16T18:50:26.266Z,8.50
2017-08-16T18:52:52.676Z,11.02
2017-08-16T18:55:19.839Z,9.10
2017-08-16T18:57:46.359Z,6.65
2017-08-16T19:00:13.545Z,6.05
2017-08-16T19:02:39.944Z,6.32
2017-08-16T19:05:06.363Z,7.05
2017-08-16T19:07:32.762Z,13.88
2017-08-16T19:09:59.991Z,24.35
2017-08-16T19:12:27.136Z,20.70
2017-08-16T19:14:54.288Z,19.65
2017-08-16T19:17:20.696Z,18.77
2017-08-16T19:19:47.868Z,8.65
2017-08-16T19:22:14.288Z,13.48
2017-08-16T19:24:40.648Z,10.38
2017-08-16T19:27:07.076Z,12.43
2017-08-16T19:29:33.489Z,6.95
2017-08-16T19:32:00.612Z,6.78
2017-08-16T19:34:27.009Z,6.40
2017-08-16T19:36:53.381Z,6.47
2017-08-16T19:39:19.806Z,5.28
2017-08-16T19:41:46.204Z,6.00
2017-08-16T19:44:12.642Z,5.35
2017-08-16T19:46:39.036Z,5.72
2017-08-16T19:49:05.504Z,5.90
2017-08-16T19:51:31.889Z,4.80
2017-08-16T19:53:58.372Z,5.87
2017-08-16T19:56:24.739Z,5.90
2017-08-16T19:58:51.239Z,5.70
2017-08-16T20:01:17.645Z,6.30
2017-08-16T20:03:44.021Z,6.05
2017-08-16T20:06:10.455Z,5.97
2017-08-16T20:08:36.834Z,5.62
2017-08-16T20:11:03.196Z,5.82
2017-08-16T20:13:29.612Z,6.28
2017-08-16T20:15:55.971Z,5.85
2017-08-16T20:18:22.357Z,6.65
2017-08-16T20:20:49.467Z,6.90
2017-08-16T20:23:15.873Z,5.80
2017-08-16T20:25:42.252Z,6.82
2017-08-16T20:28:09.412Z,6.37
2017-08-16T20:30:35.829Z,5.82
2017-08-16T20:33:02.956Z,6.70
2017-08-16T20:35:29.349Z,7.30
2017-08-16T20:37:55.734Z,6.90
2017-08-16T20:40:22.121Z,8.10
2017-08-16T20:42:48.668Z,7.20
2017-08-16T20:45:15.048Z,7.12
2017-08-16T20:47:42.160Z,7.78
2017-08-16T20:50:08.607Z,6.32
2017-08-16T20:52:34.976Z,6.62
2017-08-16T20:55:01.356Z,6.75
2017-08-16T20:57:27.810Z,6.93
2017-08-16T20:59:54.169Z,6.87
2017-08-16T21:02:20.553Z,7.10
2017-08-16T21:04:46.959Z,6.82
2017-08-16T21:07:13.357Z,7.07
2017-08-16T21:09:40.559Z,6.40
2017-08-16T21:12:06.945Z,6.05
2017-08-16T21:14:33.326Z,5.85
2017-08-16T21:16:59.684Z,6.75
2017-08-16T21:19:26.065Z,7.00
2017-08-16T21:21:52.501Z,6.55
2017-08-16T21:24:18.904Z,6.85
2017-08-16T21:26:45.269Z,5.87
2017-08-16T21:29:11.649Z,6.35
2017-08-16T21:31:38.072Z,6.07
2017-08-16T21:34:04.475Z,6.50
2017-08-16T21:36:30.854Z,6.93
2017-08-16T21:38:57.234Z,7.00
2017-08-16T21:41:23.666Z,6.30
2017-08-16T21:43:50.035Z,6.37
2017-08-16T21:46:17.172Z,6.20
2017-08-16T21:48:43.520Z,6.60
2017-08-16T21:51:10.628Z,6.72
2017-08-16T21:53:37.065Z,7.05
2017-08-16T21:56:03.433Z,6.87
2017-08-16T21:58:30.572Z,7.12
2017-08-16T22:00:57.694Z,6.50
2017-08-16T22:03:24.905Z,7.53
2017-08-16T22:05:51.325Z,7.57
2017-08-16T22:08:17.701Z,7.10
2017-08-16T22:10:44.084Z,7.20
2017-08-16T22:13:10.480Z,6.70
2017-08-16T22:15:36.889Z,7.95
2017-08-16T22:18:03.280Z,7.68
2017-08-16T22:20:30.404Z,7.37
2017-08-16T22:22:56.776Z,8.02
2017-08-16T22:25:23.144Z,6.90
2017-08-16T22:27:49.536Z,7.47
2017-08-16T22:30:15.890Z,6.90
2017-08-16T22:32:42.247Z,7.60
2017-08-16T22:35:08.644Z,7.68
2017-08-16T22:37:35.036Z,7.60
2017-08-16T22:40:01.417Z,6.95
2017-08-16T22:42:27.833Z,7.60
2017-08-16T22:44:54.199Z,7.53
2017-08-16T22:47:20.565Z,7.25
2017-08-16T22:49:46.979Z,7.87
2017-08-16T22:52:13.341Z,7.70
2017-08-16T22:54:39.767Z,7.35
2017-08-16T22:57:06.182Z,7.72
2017-08-16T22:59:32.548Z,7.20
2017-08-16T23:01:58.932Z,7.47
2017-08-16T23:04:25.324Z,6.57
2017-08-16T23:06:51.711Z,7.80
2017-08-16T23:09:18.105Z,7.87
2017-08-16T23:11:45.308Z,7.43
2017-08-16T23:14:11.713Z,7.15
2017-08-16T23:16:38.808Z,8.02
2017-08-16T23:19:05.188Z,7.80
2017-08-16T23:21:31.612Z,7.10
2017-08-16T23:23:57.975Z,8.10
2017-08-16T23:26:24.332Z,7.20
2017-08-16T23:28:50.713Z,7.20
2017-08-16T23:31:17.077Z,8.15
2017-08-16T23:33:43.476Z,7.00
2017-08-16T23:36:09.904Z,7.18
2017-08-16T23:38:36.260Z,7.00
2017-08-16T23:41:02.624Z,7.72
2017-08-16T23:43:29.030Z,7.70
2017-08-16T23:45:55.409Z,6.93
2017-08-16T23:48:21.760Z,7.15
2017-08-16T23:50:48.472Z,7.30
2017-08-16T23:53:14.839Z,6.78
2017-08-16T23:55:42.003Z,6.70
2017-08-16T23:58:08.352Z,7.18
